createdAt,value
2023-05-21T00:00:27.848Z,6228.00
2023-05-21T00:01:27.919Z,6213.00
2023-05-21T00:02:27.975Z,6273.00
2023-05-21T00:03:28.108Z,6192.00
2023-05-21T00:04:28.052Z,6005.00
2023-05-21T00:05:28.040Z,5999.00
2023-05-21T00:06:28.198Z,6180.00
2023-05-21T00:07:28.083Z,6349.00
2023-05-21T00:08:28.210Z,6438.00
2023-05-21T00:09:28.228Z,6471.00
2023-05-21T00:10:28.293Z,6460.00
2023-05-21T00:11:28.314Z,6382.00
2023-05-21T00:12:28.401Z,6431.00
2023-05-21T00:13:28.472Z,6436.00
2023-05-21T00:14:28.516Z,6472.00
2023-05-21T00:15:28.574Z,6262.00
2023-05-21T00:16:28.666Z,6137.00
2023-05-21T00:17:28.681Z,6055.00
2023-05-21T00:18:28.695Z,6229.00
2023-05-21T00:19:28.883Z,6422.00
2023-05-21T00:20:28.851Z,6673.00
2023-05-21T00:21:28.802Z,6839.00
2023-05-21T00:22:28.853Z,6713.00
2023-05-21T00:23:28.842Z,6688.00
2023-05-21T00:24:28.888Z,6728.00
2023-05-21T00:25:28.894Z,6607.00
2023-05-21T00:26:28.848Z,6444.00
2023-05-21T00:27:28.922Z,6247.00
2023-05-21T00:28:28.841Z,6229.00
2023-05-21T00:29:28.844Z,6426.00
2023-05-21T00:30:28.964Z,6367.00
2023-05-21T00:31:28.902Z,6095.00
2023-05-21T00:32:28.828Z,6081.00
2023-05-21T00:33:28.780Z,6175.00
2023-05-21T00:34:28.779Z,6224.00
2023-05-21T00:35:28.859Z,6174.00
2023-05-21T00:36:28.888Z,6067.00
2023-05-21T00:37:28.867Z,5897.00
2023-05-21T00:38:28.904Z,6035.00
2023-05-21T00:39:28.875Z,6085.00
2023-05-21T00:40:28.928Z,6167.00
2023-05-21T00:41:28.819Z,6296.00
2023-05-21T00:42:28.860Z,6322.00
2023-05-21T00:43:28.829Z,6344.00
2023-05-21T00:44:28.868Z,6436.00
2023-05-21T00:45:28.930Z,6595.00
2023-05-21T00:46:28.930Z,6757.00
2023-05-21T00:47:28.883Z,6910.00
2023-05-21T00:48:28.865Z,6904.00
2023-05-21T00:49:28.876Z,6896.00
2023-05-21T00:50:28.990Z,6827.00
2023-05-21T00:51:29.011Z,6661.00
2023-05-21T00:52:29.110Z,6756.00
2023-05-21T00:53:29.049Z,6900.00
2023-05-21T00:54:29.092Z,6988.00
2023-05-21T00:55:29.139Z,6891.00
2023-05-21T00:56:29.123Z,6814.00
2023-05-21T00:57:29.165Z,6844.00
2023-05-21T00:58:29.164Z,6924.00
2023-05-21T00:59:29.250Z,6906.00
2023-05-21T01:00:29.291Z,6922.00
2023-05-21T01:01:29.345Z,7023.00
2023-05-21T01:02:29.365Z,7201.00
2023-05-21T01:03:29.458Z,7397.00
2023-05-21T01:04:29.364Z,7458.00
2023-05-21T01:05:29.428Z,7332.00
2023-05-21T01:06:29.403Z,7321.00
2023-05-21T01:07:29.434Z,7348.00
2023-05-21T01:08:29.509Z,7327.00
2023-05-21T01:09:30.560Z,7381.00
2023-05-21T01:10:29.563Z,7383.00
2023-05-21T01:11:29.569Z,7201.00
2023-05-21T01:12:29.583Z,6984.00
2023-05-21T01:13:29.632Z,6947.00
2023-05-21T01:14:29.627Z,6913.00
2023-05-21T01:15:29.650Z,7028.00
2023-05-21T01:16:29.678Z,7030.00
2023-05-21T01:17:29.642Z,7058.00
2023-05-21T01:18:29.706Z,7155.00
2023-05-21T01:19:29.673Z,7386.00
2023-05-21T01:20:29.622Z,7798.00
2023-05-21T01:21:29.629Z,7986.00
2023-05-21T01:22:29.604Z,7928.00
2023-05-21T01:23:29.590Z,7897.00
2023-05-21T01:24:29.635Z,8128.00
2023-05-21T01:25:29.616Z,8142.00
2023-05-21T01:26:29.637Z,8218.00
2023-05-21T01:27:29.624Z,8144.00
2023-05-21T01:28:29.621Z,8196.00
2023-05-21T01:29:29.585Z,8274.00
2023-05-21T01:30:29.583Z,8272.00
2023-05-21T01:31:29.565Z,8242.00
2023-05-21T01:32:29.619Z,8111.00
2023-05-21T01:33:29.731Z,8058.00
2023-05-21T01:34:29.559Z,8120.00
2023-05-21T01:35:29.611Z,8075.00
2023-05-21T01:36:29.563Z,8129.00
2023-05-21T01:37:29.531Z,8180.00
2023-05-21T01:38:29.559Z,8146.00
2023-05-21T01:39:29.541Z,7845.00
2023-05-21T01:40:29.674Z,7518.00
2023-05-21T01:41:29.726Z,7276.00
2023-05-21T01:42:29.670Z,7205.00
2023-05-21T01:43:29.655Z,7292.00
2023-05-21T01:44:29.634Z,7530.00
2023-05-21T01:45:29.734Z,7481.00
2023-05-21T01:46:29.695Z,7348.00
2023-05-21T01:47:29.714Z,7422.00
2023-05-21T01:48:29.704Z,7529.00
2023-05-21T01:49:29.699Z,7595.00
2023-05-21T01:50:29.753Z,7586.00
2023-05-21T01:51:29.731Z,7540.00
2023-05-21T01:52:29.758Z,7548.00
2023-05-21T01:53:29.735Z,7545.00
2023-05-21T01:54:29.757Z,7561.00
2023-05-21T01:55:29.753Z,7664.00
2023-05-21T01:56:29.758Z,7707.00
2023-05-21T01:57:29.763Z,7627.00
2023-05-21T01:58:29.762Z,7624.00
2023-05-21T01:59:29.810Z,7656.00
2023-05-21T02:00:29.855Z,7407.00
2023-05-21T02:01:29.850Z,7280.00
2023-05-21T02:02:29.952Z,7256.00
2023-05-21T02:03:29.965Z,7287.00
2023-05-21T02:04:29.853Z,7394.00
2023-05-21T02:05:29.878Z,7432.00
2023-05-21T02:06:29.835Z,7471.00
2023-05-21T02:07:29.885Z,7655.00
2023-05-21T02:08:29.852Z,7907.00
2023-05-21T02:09:29.980Z,8100.00
2023-05-21T02:10:30.013Z,7889.00
2023-05-21T02:11:29.899Z,7738.00
2023-05-21T02:12:29.962Z,7571.00
2023-05-21T02:13:29.984Z,7559.00
2023-05-21T02:14:29.969Z,7586.00
2023-05-21T02:15:30.000Z,7375.00
2023-05-21T02:16:30.135Z,7616.00
2023-05-21T02:17:30.053Z,7767.00
2023-05-21T02:18:30.094Z,7689.00
2023-05-21T02:19:30.399Z,7491.00
2023-05-21T02:20:30.177Z,7475.00
2023-05-21T02:21:30.163Z,7276.00
2023-05-21T02:22:30.228Z,7054.00
2023-05-21T02:23:30.225Z,7014.00
2023-05-21T02:24:30.224Z,7105.00
2023-05-21T02:25:30.235Z,7277.00
2023-05-21T02:26:30.251Z,7353.00
2023-05-21T02:27:30.255Z,7400.00
2023-05-21T02:28:30.275Z,7543.00
2023-05-21T02:29:30.268Z,7553.00
2023-05-21T02:30:30.326Z,7518.00
2023-05-21T02:31:30.292Z,7854.00
2023-05-21T02:32:31.182Z,8097.00
2023-05-21T02:33:30.300Z,8235.00
2023-05-21T02:34:30.360Z,8220.00
2023-05-21T02:35:30.364Z,8048.00
2023-05-21T02:36:30.381Z,7968.00
2023-05-21T02:37:30.471Z,7900.00
2023-05-21T02:38:30.536Z,8126.00
2023-05-21T02:39:30.595Z,8300.00
2023-05-21T02:40:30.635Z,8293.00
2023-05-21T02:41:30.710Z,8212.00
2023-05-21T02:42:30.717Z,8243.00
2023-05-21T02:43:30.694Z,8271.00
2023-05-21T02:44:30.744Z,8284.00
2023-05-21T02:45:30.790Z,8263.00
2023-05-21T02:46:30.851Z,8348.00
2023-05-21T02:47:30.826Z,8436.00
2023-05-21T02:48:30.787Z,8409.00
2023-05-21T02:49:30.840Z,8270.00
2023-05-21T02:50:30.853Z,8258.00
2023-05-21T02:51:30.862Z,8252.00
2023-05-21T02:52:30.816Z,8285.00
2023-05-21T02:53:30.888Z,8228.00
2023-05-21T02:54:30.922Z,8326.00
2023-05-21T02:55:31.737Z,8474.00
2023-05-21T02:56:30.894Z,8605.00
2023-05-21T02:57:30.884Z,8580.00
2023-05-21T02:58:30.872Z,8515.00
2023-05-21T02:59:30.900Z,8269.00
2023-05-21T03:00:30.961Z,8196.00
2023-05-21T03:01:30.964Z,8047.00
2023-05-21T03:02:31.079Z,7938.00
2023-05-21T03:03:31.142Z,7848.00
2023-05-21T03:04:31.036Z,7806.00
2023-05-21T03:05:31.011Z,7775.00
2023-05-21T03:06:31.019Z,7600.00
2023-05-21T03:07:31.025Z,7422.00
2023-05-21T03:08:31.053Z,7331.00
2023-05-21T03:09:31.080Z,7476.00
2023-05-21T03:10:31.070Z,7570.00
2023-05-21T03:11:31.149Z,7614.00
2023-05-21T03:12:31.230Z,7590.00
2023-05-21T03:13:31.327Z,7537.00
2023-05-21T03:14:31.310Z,7581.00
2023-05-21T03:15:31.422Z,7749.00
2023-05-21T03:16:31.441Z,7752.00
2023-05-21T03:17:31.427Z,7772.00
2023-05-21T03:18:31.367Z,7779.00
2023-05-21T03:19:31.423Z,7812.00
2023-05-21T03:20:31.373Z,7890.00
2023-05-21T03:21:31.312Z,7936.00
2023-05-21T03:22:31.334Z,7981.00
2023-05-21T03:23:31.313Z,7925.00
2023-05-21T03:24:31.365Z,7892.00
2023-05-21T03:25:31.542Z,7905.00
2023-05-21T03:26:31.492Z,7940.00
2023-05-21T03:27:31.527Z,7971.00
2023-05-21T03:28:31.582Z,8061.00
2023-05-21T03:29:31.658Z,8021.00
2023-05-21T03:30:31.673Z,7952.00
2023-05-21T03:31:31.711Z,7893.00
2023-05-21T03:32:31.822Z,7839.00
2023-05-21T03:33:31.837Z,7826.00
2023-05-21T03:34:31.828Z,7891.00
2023-05-21T03:35:31.815Z,7984.00
2023-05-21T03:36:31.921Z,8033.00
2023-05-21T03:37:31.957Z,7965.00
2023-05-21T03:38:31.900Z,7985.00
2023-05-21T03:39:31.897Z,7994.00
2023-05-21T03:40:31.968Z,7994.00
2023-05-21T03:41:32.059Z,7970.00
2023-05-21T03:42:32.011Z,7952.00
2023-05-21T03:43:32.030Z,7993.00
2023-05-21T03:44:32.094Z,7957.00
2023-05-21T03:45:32.133Z,7976.00
2023-05-21T03:46:32.338Z,7938.00
2023-05-21T03:47:32.137Z,7934.00
2023-05-21T03:48:32.149Z,7935.00
2023-05-21T03:49:32.101Z,7937.00
2023-05-21T03:50:32.111Z,7956.00
2023-05-21T03:51:32.084Z,7915.00
2023-05-21T03:52:32.070Z,7876.00
2023-05-21T03:53:32.061Z,7845.00
2023-05-21T03:54:32.049Z,7826.00
2023-05-21T03:55:32.060Z,7802.00
2023-05-21T03:56:32.071Z,7787.00
2023-05-21T03:57:32.045Z,7885.00
2023-05-21T03:58:32.043Z,7864.00
2023-05-21T03:59:32.009Z,7827.00
2023-05-21T04:00:32.030Z,7872.00
2023-05-21T04:01:32.067Z,7854.00
2023-05-21T04:02:32.152Z,7834.00
2023-05-21T04:03:32.229Z,7855.00
2023-05-21T04:04:32.048Z,7855.00
2023-05-21T04:05:32.012Z,7917.00
2023-05-21T04:06:32.045Z,8080.00
2023-05-21T04:07:32.011Z,8093.00
2023-05-21T04:08:31.992Z,8047.00
2023-05-21T04:09:32.004Z,8096.00
2023-05-21T04:10:32.055Z,8075.00
2023-05-21T04:11:31.973Z,8140.00
2023-05-21T04:12:32.008Z,8129.00
2023-05-21T04:13:31.981Z,7938.00
2023-05-21T04:14:31.977Z,7957.00
2023-05-21T04:15:31.978Z,8132.00
2023-05-21T04:16:32.073Z,8087.00
2023-05-21T04:17:32.030Z,8082.00
2023-05-21T04:18:32.010Z,7976.00
2023-05-21T04:19:32.194Z,8482.00
2023-05-21T04:20:32.032Z,8391.00
2023-05-21T04:21:32.022Z,8354.00
2023-05-21T04:22:32.106Z,8406.00
2023-05-21T04:23:32.157Z,8393.00
2023-05-21T04:24:32.129Z,8422.00
2023-05-21T04:25:32.687Z,8445.00
2023-05-21T04:26:32.176Z,8456.00
2023-05-21T04:27:32.183Z,8486.00
2023-05-21T04:28:32.167Z,8533.00
2023-05-21T04:29:32.195Z,8603.00
2023-05-21T04:30:32.219Z,8592.00
2023-05-21T04:31:32.258Z,8568.00
2023-05-21T04:32:32.241Z,8616.00
2023-05-21T04:33:32.254Z,8678.00
2023-05-21T04:34:32.287Z,8616.00
2023-05-21T04:35:32.345Z,8601.00
2023-05-21T04:36:32.401Z,8635.00
2023-05-21T04:37:32.435Z,8647.00
2023-05-21T04:38:32.476Z,8577.00
2023-05-21T04:39:32.565Z,8593.00
2023-05-21T04:40:32.592Z,8609.00
2023-05-21T04:41:32.534Z,8586.00
2023-05-21T04:42:32.560Z,8577.00
2023-05-21T04:43:32.530Z,8544.00
2023-05-21T04:44:32.520Z,8535.00
2023-05-21T04:45:32.541Z,8544.00
2023-05-21T04:46:32.559Z,8486.00
2023-05-21T04:47:32.546Z,8450.00
2023-05-21T04:48:32.503Z,8374.00
2023-05-21T04:49:32.535Z,8322.00
2023-05-21T04:50:32.554Z,8330.00
2023-05-21T04:51:32.477Z,8522.00
2023-05-21T04:52:32.462Z,8535.00
2023-05-21T04:53:32.498Z,8567.00
2023-05-21T04:54:32.489Z,8599.00
2023-05-21T04:55:32.462Z,8619.00
2023-05-21T04:56:32.486Z,8588.00
2023-05-21T04:57:32.452Z,8488.00
2023-05-21T04:58:32.413Z,8478.00
2023-05-21T04:59:32.432Z,8332.00
2023-05-21T05:00:32.461Z,8296.00
2023-05-21T05:01:32.397Z,8226.00
2023-05-21T05:02:32.452Z,8313.00
2023-05-21T05:03:32.463Z,8488.00
2023-05-21T05:04:32.474Z,8486.00
2023-05-21T05:05:32.424Z,8473.00
2023-05-21T05:06:32.377Z,8416.00
2023-05-21T05:07:32.374Z,8464.00
2023-05-21T05:08:32.372Z,8531.00
2023-05-21T05:09:32.385Z,8568.00
2023-05-21T05:10:32.417Z,8422.00
2023-05-21T05:11:32.376Z,8359.00
2023-05-21T05:12:32.392Z,8331.00
2023-05-21T05:13:32.420Z,8358.00
2023-05-21T05:14:32.414Z,8333.00
2023-05-21T05:15:32.469Z,8346.00
2023-05-21T05:16:32.549Z,8453.00
2023-05-21T05:17:32.436Z,8495.00
2023-05-21T05:18:32.432Z,8419.00
2023-05-21T05:19:32.495Z,8312.00
2023-05-21T05:20:32.475Z,8340.00
2023-05-21T05:21:32.477Z,8339.00
2023-05-21T05:22:32.558Z,8364.00
2023-05-21T05:23:32.564Z,8425.00
2023-05-21T05:24:32.595Z,8427.00
2023-05-21T05:25:32.601Z,8364.00
2023-05-21T05:26:32.598Z,8256.00
2023-05-21T05:27:32.620Z,8159.00
2023-05-21T05:28:32.638Z,8219.00
2023-05-21T05:29:32.626Z,8305.00
2023-05-21T05:30:32.708Z,8195.00
2023-05-21T05:31:32.708Z,8059.00
2023-05-21T05:32:32.661Z,8000.00
2023-05-21T05:33:32.694Z,7987.00
2023-05-21T05:34:32.706Z,7888.00
2023-05-21T05:35:32.782Z,7783.00
2023-05-21T05:36:32.813Z,7712.00
2023-05-21T05:37:32.794Z,7708.00
2023-05-21T05:38:32.864Z,7669.00
2023-05-21T05:39:33.025Z,7561.00
2023-05-21T05:40:33.037Z,7610.00
2023-05-21T05:41:33.023Z,7613.00
2023-05-21T05:42:32.998Z,7626.00
2023-05-21T05:43:33.015Z,7450.00
2023-05-21T05:44:33.028Z,7329.00
2023-05-21T05:45:33.029Z,7055.00
2023-05-21T05:46:33.031Z,6985.00
2023-05-21T05:47:33.043Z,6983.00
2023-05-21T05:48:32.959Z,6881.00
2023-05-21T05:49:32.979Z,6789.00
2023-05-21T05:50:32.960Z,6851.00
2023-05-21T05:51:32.955Z,7021.00
2023-05-21T05:52:32.986Z,7065.00
2023-05-21T05:53:33.040Z,7143.00
2023-05-21T05:54:33.063Z,7055.00
2023-05-21T05:55:33.118Z,7003.00
2023-05-21T05:56:33.115Z,7011.00
2023-05-21T05:57:33.099Z,6980.00
2023-05-21T05:58:33.146Z,6908.00
2023-05-21T05:59:33.127Z,6853.00
2023-05-21T06:00:33.182Z,6852.00
2023-05-21T06:01:33.154Z,6844.00
2023-05-21T06:02:33.227Z,6791.00
2023-05-21T06:03:33.293Z,6654.00
2023-05-21T06:04:33.208Z,6548.00
2023-05-21T06:05:33.282Z,6545.00
2023-05-21T06:06:33.300Z,6565.00
2023-05-21T06:07:33.323Z,6609.00
2023-05-21T06:08:33.998Z,6662.00
2023-05-21T06:09:33.330Z,6722.00
2023-05-21T06:10:33.342Z,6730.00
2023-05-21T06:11:33.354Z,6760.00
2023-05-21T06:12:33.371Z,6637.00
2023-05-21T06:13:33.359Z,6353.00
2023-05-21T06:14:33.367Z,6303.00
2023-05-21T06:15:33.381Z,6409.00
2023-05-21T06:16:33.412Z,6096.00
2023-05-21T06:17:33.558Z,5943.00
2023-05-21T06:18:33.482Z,5833.00
2023-05-21T06:19:33.519Z,5809.00
2023-05-21T06:20:33.535Z,5890.00
2023-05-21T06:21:33.525Z,5945.00
2023-05-21T06:22:33.532Z,6007.00
2023-05-21T06:23:33.562Z,6010.00
2023-05-21T06:24:33.586Z,5986.00
2023-05-21T06:25:33.733Z,5792.00
2023-05-21T06:26:33.702Z,5639.00
2023-05-21T06:27:33.748Z,5616.00
2023-05-21T06:28:33.788Z,5263.00
2023-05-21T06:29:33.833Z,4879.00
2023-05-21T06:30:33.888Z,4776.00
2023-05-21T06:31:33.892Z,4764.00
2023-05-21T06:32:34.002Z,4783.00
2023-05-21T06:33:34.060Z,4779.00
2023-05-21T06:34:33.979Z,4844.00
2023-05-21T06:35:34.181Z,4938.00
2023-05-21T06:36:34.110Z,4859.00
2023-05-21T06:37:34.135Z,4833.00
2023-05-21T06:38:34.175Z,4760.00
2023-05-21T06:39:34.200Z,4715.00
2023-05-21T06:40:34.272Z,4779.00
2023-05-21T06:41:34.322Z,4867.00
2023-05-21T06:42:34.403Z,5082.00
2023-05-21T06:43:34.343Z,5087.00
2023-05-21T06:44:34.337Z,4976.00
2023-05-21T06:45:34.452Z,4859.00
2023-05-21T06:46:35.351Z,4748.00
2023-05-21T06:47:34.424Z,4672.00
2023-05-21T06:48:34.300Z,4536.00
2023-05-21T06:49:34.302Z,4341.00
2023-05-21T06:50:34.349Z,4309.00
2023-05-21T06:51:34.393Z,4459.00
2023-05-21T06:52:34.383Z,4307.00
2023-05-21T06:53:34.343Z,4257.00
2023-05-21T06:54:34.371Z,4122.00
2023-05-21T06:55:34.540Z,3959.00
2023-05-21T06:56:34.427Z,4015.00
2023-05-21T06:57:34.469Z,4091.00
2023-05-21T06:58:34.512Z,4083.00
2023-05-21T06:59:34.584Z,4094.00
2023-05-21T07:00:34.651Z,4187.00
2023-05-21T07:01:34.653Z,4176.00
2023-05-21T07:02:34.758Z,4254.00
2023-05-21T07:03:34.702Z,4209.00
2023-05-21T07:04:34.700Z,4231.00
2023-05-21T07:05:35.086Z,4206.00
2023-05-21T07:06:34.831Z,3849.00
2023-05-21T07:07:34.959Z,4000.00
2023-05-21T07:08:34.902Z,4010.00
2023-05-21T07:09:34.986Z,4147.00
2023-05-21T07:10:34.967Z,4223.00
2023-05-21T07:11:34.939Z,4058.00
2023-05-21T07:12:35.016Z,4024.00
2023-05-21T07:13:35.009Z,4026.00
2023-05-21T07:14:34.973Z,4059.00
2023-05-21T07:15:35.175Z,4030.00
2023-05-21T07:16:34.982Z,3992.00
2023-05-21T07:17:35.083Z,4012.00
2023-05-21T07:18:34.930Z,4061.00
2023-05-21T07:19:34.966Z,3985.00
2023-05-21T07:20:34.958Z,3953.00
2023-05-21T07:21:34.942Z,3989.00
2023-05-21T07:22:34.941Z,4122.00
2023-05-21T07:23:34.924Z,3977.00
2023-05-21T07:24:34.920Z,4069.00
2023-05-21T07:25:35.152Z,4171.00
2023-05-21T07:26:34.922Z,3984.00
2023-05-21T07:27:34.919Z,3959.00
2023-05-21T07:28:34.909Z,4099.00
2023-05-21T07:29:35.297Z,4020.00
2023-05-21T07:30:34.919Z,3895.00
2023-05-21T07:31:34.957Z,3754.00
2023-05-21T07:32:35.058Z,3828.00
2023-05-21T07:33:34.976Z,3732.00
2023-05-21T07:34:35.030Z,3640.00
2023-05-21T07:35:35.234Z,3649.00
2023-05-21T07:36:35.064Z,3598.00
2023-05-21T07:37:35.108Z,3681.00
2023-05-21T07:38:35.042Z,3717.00
2023-05-21T07:39:35.040Z,3747.00
2023-05-21T07:40:35.045Z,3664.00
2023-05-21T07:41:35.029Z,3553.00
2023-05-21T07:42:35.056Z,3417.00
2023-05-21T07:43:35.018Z,3221.00
2023-05-21T07:44:35.035Z,3211.00
2023-05-21T07:45:35.146Z,3047.00
2023-05-21T07:46:35.040Z,2927.00
2023-05-21T07:47:35.083Z,2814.00
2023-05-21T07:48:35.771Z,2906.00
2023-05-21T07:49:35.106Z,2838.00
2023-05-21T07:50:35.162Z,2814.00
2023-05-21T07:51:35.184Z,2751.00
2023-05-21T07:52:35.167Z,2785.00
2023-05-21T07:53:35.198Z,2611.00
2023-05-21T07:54:35.207Z,2560.00
2023-05-21T07:55:35.364Z,2697.00
2023-05-21T07:56:35.261Z,2553.00
2023-05-21T07:57:35.281Z,2261.00
2023-05-21T07:58:35.376Z,1973.00
2023-05-21T07:59:35.303Z,1658.00
2023-05-21T08:00:35.397Z,1478.00
2023-05-21T08:01:35.419Z,1622.00
2023-05-21T08:02:35.525Z,1804.00
2023-05-21T08:03:35.622Z,1947.00
2023-05-21T08:04:36.535Z,1832.00
2023-05-21T08:05:35.770Z,1694.00
2023-05-21T08:06:35.552Z,1611.00
2023-05-21T08:07:35.641Z,1573.00
2023-05-21T08:08:35.673Z,2308.00
2023-05-21T08:09:35.834Z,2151.00
2023-05-21T08:10:35.798Z,2143.00
2023-05-21T08:11:36.361Z,2033.00
2023-05-21T08:12:35.766Z,2045.00
2023-05-21T08:13:35.876Z,1617.00
2023-05-21T08:14:35.919Z,1582.00
2023-05-21T08:15:36.119Z,1862.00
2023-05-21T08:16:36.137Z,1701.00
2023-05-21T08:17:36.097Z,1572.00
2023-05-21T08:18:36.073Z,1740.00
2023-05-21T08:19:36.176Z,1769.00
2023-05-21T08:20:36.159Z,1458.00
2023-05-21T08:21:44.249Z,1451.00
2023-05-21T08:22:36.164Z,1451.00
2023-05-21T08:23:36.165Z,1474.00
2023-05-21T08:24:36.106Z,1583.00
2023-05-21T08:25:36.384Z,1757.00
2023-05-21T08:26:36.128Z,1989.00
2023-05-21T08:27:36.093Z,1858.00
2023-05-21T08:28:36.084Z,1603.00
2023-05-21T08:29:36.118Z,1568.00
2023-05-21T08:30:36.113Z,1610.00
2023-05-21T08:31:36.131Z,1632.00
2023-05-21T08:32:36.098Z,1499.00
2023-05-21T08:33:36.083Z,1336.00
2023-05-21T08:34:36.096Z,1184.00
2023-05-21T08:35:36.428Z,1285.00
2023-05-21T08:36:36.220Z,1260.00
2023-05-21T08:37:36.274Z,1287.00
2023-05-21T08:38:36.292Z,1381.00
2023-05-21T08:39:36.357Z,1513.00
2023-05-21T08:40:36.329Z,1639.00
2023-05-21T08:41:36.303Z,1737.00
2023-05-21T08:42:37.522Z,1401.00
2023-05-21T08:43:36.310Z,1415.00
2023-05-21T08:44:36.321Z,1339.00
2023-05-21T08:45:36.537Z,1272.00
2023-05-21T08:46:36.320Z,1527.00
2023-05-21T08:47:36.333Z,1436.00
2023-05-21T08:48:36.301Z,1409.00
2023-05-21T08:49:36.360Z,1376.00
2023-05-21T08:50:36.377Z,1377.00
2023-05-21T08:51:36.430Z,1537.00
2023-05-21T08:52:36.421Z,1514.00
2023-05-21T08:53:36.391Z,1316.00
2023-05-21T08:54:36.411Z,1143.00
2023-05-21T08:55:36.657Z,1050.00
2023-05-21T08:56:36.458Z,1429.00
2023-05-21T08:57:36.524Z,1587.00
2023-05-21T08:58:36.597Z,1594.00
2023-05-21T08:59:36.591Z,1261.00
2023-05-21T09:00:36.590Z,1158.00
2023-05-21T09:01:36.620Z,1062.00
2023-05-21T09:02:36.698Z,1214.00
2023-05-21T09:03:36.638Z,1484.00
2023-05-21T09:04:36.760Z,1368.00
2023-05-21T09:05:36.929Z,898.00
2023-05-21T09:06:36.787Z,814.00
2023-05-21T09:07:36.805Z,626.00
2023-05-21T09:08:36.849Z,540.00
2023-05-21T09:09:36.859Z,400.00
2023-05-21T09:10:44.949Z,400.00
2023-05-21T09:11:36.867Z,400.00
2023-05-21T09:12:36.904Z,400.00
2023-05-21T09:13:38.811Z,400.00
2023-05-21T09:14:36.842Z,400.00
2023-05-21T09:15:37.120Z,400.00
2023-05-21T09:16:36.939Z,400.00
2023-05-21T09:17:36.960Z,400.00
2023-05-21T09:18:36.910Z,400.00
2023-05-21T09:19:37.072Z,400.00
2023-05-21T09:20:37.041Z,400.00
2023-05-21T09:21:37.050Z,400.00
2023-05-21T09:22:37.081Z,400.00
2023-05-21T09:23:37.073Z,400.00
2023-05-21T09:24:37.102Z,400.00
2023-05-21T09:25:37.270Z,400.00
2023-05-21T09:26:37.089Z,400.00
2023-05-21T09:27:37.095Z,400.00
2023-05-21T09:28:37.206Z,400.00
2023-05-21T09:29:37.227Z,400.00
2023-05-21T09:30:37.517Z,400.00
2023-05-21T09:31:37.319Z,400.00
2023-05-21T09:32:37.276Z,400.00
2023-05-21T09:33:37.373Z,400.00
2023-05-21T09:34:37.340Z,400.00
2023-05-21T09:35:38.186Z,400.00
2023-05-21T09:36:37.410Z,512.00
2023-05-21T09:37:37.498Z,400.00
2023-05-21T09:38:37.475Z,400.00
2023-05-21T09:39:37.574Z,405.00
2023-05-21T09:40:37.773Z,512.00
2023-05-21T09:41:37.638Z,571.00
2023-05-21T09:42:37.604Z,449.00
2023-05-21T09:43:37.652Z,564.00
2023-05-21T09:44:37.654Z,455.00
2023-05-21T09:45:37.917Z,479.00
2023-05-21T09:46:37.835Z,641.00
2023-05-21T09:47:37.817Z,931.00
2023-05-21T09:48:37.781Z,925.00
2023-05-21T09:49:37.810Z,623.00
2023-05-21T09:50:38.020Z,884.00
2023-05-21T09:51:37.866Z,561.00
2023-05-21T09:52:39.103Z,571.00
2023-05-21T09:53:37.938Z,474.00
2023-05-21T09:54:38.027Z,488.00
2023-05-21T09:55:38.025Z,490.00
2023-05-21T09:56:38.030Z,438.00
2023-05-21T09:57:37.969Z,431.00
2023-05-21T09:58:37.978Z,530.00
2023-05-21T09:59:37.987Z,571.00
2023-05-21T10:00:38.157Z,582.00
2023-05-21T10:01:37.975Z,842.00
2023-05-21T10:02:38.037Z,632.00
2023-05-21T10:03:37.943Z,795.00
2023-05-21T10:04:38.009Z,850.00
2023-05-21T10:05:37.900Z,860.00
2023-05-21T10:06:37.910Z,877.00
2023-05-21T10:07:37.895Z,782.00
2023-05-21T10:08:37.934Z,718.00
2023-05-21T10:09:37.923Z,659.00
2023-05-21T10:10:38.138Z,910.00
2023-05-21T10:11:37.930Z,1080.00
2023-05-21T10:12:37.914Z,734.00
2023-05-21T10:13:37.863Z,638.00
2023-05-21T10:14:37.886Z,614.00
2023-05-21T10:15:37.877Z,648.00
2023-05-21T10:16:37.949Z,750.00
2023-05-21T10:17:37.895Z,786.00
2023-05-21T10:18:37.850Z,1064.00
2023-05-21T10:19:37.854Z,1071.00
2023-05-21T10:20:38.092Z,1131.00
2023-05-21T10:21:37.910Z,940.00
2023-05-21T10:22:37.826Z,646.00
2023-05-21T10:23:37.829Z,726.00
2023-05-21T10:24:37.841Z,516.00
2023-05-21T10:25:37.845Z,500.00
2023-05-21T10:26:37.814Z,943.00
2023-05-21T10:27:37.839Z,1177.00
2023-05-21T10:28:37.808Z,831.00
2023-05-21T10:29:37.815Z,698.00
2023-05-21T10:30:38.125Z,828.00
2023-05-21T10:31:37.797Z,747.00
2023-05-21T10:32:37.946Z,744.00
2023-05-21T10:33:37.871Z,858.00
2023-05-21T10:34:37.825Z,861.00
2023-05-21T10:35:38.071Z,542.00
2023-05-21T10:36:37.994Z,655.00
2023-05-21T10:37:37.872Z,585.00
2023-05-21T10:38:37.937Z,618.00
2023-05-21T10:39:38.064Z,612.00
2023-05-21T10:40:38.187Z,651.00
2023-05-21T10:41:38.060Z,772.00
2023-05-21T10:42:38.049Z,606.00
2023-05-21T10:43:38.094Z,628.00
2023-05-21T10:44:38.037Z,503.00
2023-05-21T10:45:38.120Z,569.00
2023-05-21T10:46:38.092Z,651.00
2023-05-21T10:47:38.192Z,931.00
2023-05-21T10:48:38.141Z,1060.00
2023-05-21T10:49:38.151Z,464.00
2023-05-21T10:50:38.494Z,440.00
2023-05-21T10:51:38.342Z,471.00
2023-05-21T10:52:38.352Z,766.00
2023-05-21T10:53:38.346Z,1244.00
2023-05-21T10:54:38.359Z,1263.00
2023-05-21T10:55:38.368Z,1280.00
2023-05-21T10:56:38.363Z,1276.00
2023-05-21T10:57:38.320Z,1164.00
2023-05-21T10:58:38.366Z,1142.00
2023-05-21T10:59:38.321Z,1303.00
2023-05-21T11:00:38.523Z,1537.00
2023-05-21T11:01:38.351Z,827.00
2023-05-21T11:02:38.383Z,608.00
2023-05-21T11:03:38.407Z,901.00
2023-05-21T11:04:38.256Z,1037.00
2023-05-21T11:05:38.314Z,655.00
2023-05-21T11:06:38.334Z,646.00
2023-05-21T11:07:38.268Z,920.00
2023-05-21T11:08:38.273Z,797.00
2023-05-21T11:09:38.301Z,805.00
2023-05-21T11:10:38.569Z,1038.00
2023-05-21T11:11:38.288Z,1321.00
2023-05-21T11:12:38.264Z,1208.00
2023-05-21T11:13:38.276Z,994.00
2023-05-21T11:14:38.347Z,1083.00
2023-05-21T11:15:38.396Z,1064.00
2023-05-21T11:16:38.429Z,661.00
2023-05-21T11:17:38.578Z,946.00
2023-05-21T11:18:38.495Z,1229.00
2023-05-21T11:19:38.833Z,865.00
2023-05-21T11:20:38.799Z,770.00
2023-05-21T11:21:38.583Z,650.00
2023-05-21T11:22:38.601Z,830.00
2023-05-21T11:23:38.692Z,731.00
2023-05-21T11:24:38.708Z,1667.00
2023-05-21T11:25:38.723Z,977.00
2023-05-21T11:26:38.794Z,608.00
2023-05-21T11:27:38.783Z,599.00
2023-05-21T11:28:38.800Z,872.00
2023-05-21T11:29:38.883Z,1063.00
2023-05-21T11:30:40.864Z,934.00
2023-05-21T11:31:39.106Z,849.00
2023-05-21T11:32:38.928Z,972.00
2023-05-21T11:33:38.878Z,1118.00
2023-05-21T11:34:38.922Z,767.00
2023-05-21T11:35:38.936Z,670.00
2023-05-21T11:36:38.981Z,736.00
2023-05-21T11:37:39.004Z,635.00
2023-05-21T11:38:39.065Z,762.00
2023-05-21T11:39:39.010Z,648.00
2023-05-21T11:40:39.086Z,847.00
2023-05-21T11:41:39.086Z,575.00
2023-05-21T11:42:39.100Z,634.00
2023-05-21T11:43:39.113Z,562.00
2023-05-21T11:44:39.205Z,526.00
2023-05-21T11:45:39.220Z,520.00
2023-05-21T11:46:39.327Z,541.00
2023-05-21T11:47:39.316Z,565.00
2023-05-21T11:48:39.307Z,630.00
2023-05-21T11:49:39.289Z,745.00
2023-05-21T11:50:39.600Z,710.00
2023-05-21T11:51:39.446Z,750.00
2023-05-21T11:52:39.428Z,1094.00
2023-05-21T11:53:39.483Z,1431.00
2023-05-21T11:54:39.458Z,1237.00
2023-05-21T11:55:39.516Z,1236.00
2023-05-21T11:56:39.513Z,1221.00
2023-05-21T11:57:39.524Z,1159.00
2023-05-21T11:58:39.533Z,608.00
2023-05-21T11:59:39.514Z,589.00
2023-05-21T12:00:39.522Z,628.00
2023-05-21T12:01:39.616Z,566.00
2023-05-21T12:02:39.622Z,1011.00
2023-05-21T12:03:39.745Z,1016.00
2023-05-21T12:04:39.597Z,966.00
2023-05-21T12:05:39.642Z,826.00
2023-05-21T12:06:39.568Z,1042.00
2023-05-21T12:07:39.619Z,593.00
2023-05-21T12:08:39.706Z,840.00
2023-05-21T12:09:39.679Z,1168.00
2023-05-21T12:10:39.724Z,903.00